Farmington, Utah
Current Conditions -  °F | °C
As of 12:58 AM on Saturday 25 Oct 2014 (Local Time) from KHIF Reporting Station
Clear Clear  
Wind Chill: 59°   Ceiling: Unl
Heat Index: 59°   Visibility: 10mi
Dew Point: 28°   Wind: 13mph
Humidity: 31%   Direction: 120°ESE
Pressure: 30.11"   Gusts: NA
Location:  40.98°N, 111.88°W
Report Text: KHIF 250658Z AUTO 12011KT 10SM CLR 15/M02 A3011 RMK AO2 SLP151 T01511022 402430082
Loading
Personal Weather Stations






























Interactive Weather Map
Tropical Storm Tracking
New forecast layout! Learn more

10-Day Weather Forecast

Advertisements
Track Severe Weather on mobile